sensor_id;sensor_type;location;lat;lon;timestamp;temperature;humidity
32293;DHT22;43233;48.608;8.838;2022-07-24T00:00:41;21.70;58.70
32293;DHT22;43233;48.608;8.838;2022-07-24T00:03:07;21.70;58.60
32293;DHT22;43233;48.608;8.838;2022-07-24T00:05:33;21.60;58.60
32293;DHT22;43233;48.608;8.838;2022-07-24T00:07:58;21.60;58.60
32293;DHT22;43233;48.608;8.838;2022-07-24T00:10:24;21.60;58.60
32293;DHT22;43233;48.608;8.838;2022-07-24T00:12:50;21.60;58.60
32293;DHT22;43233;48.608;8.838;2022-07-24T00:15:17;21.60;58.90
32293;DHT22;43233;48.608;8.838;2022-07-24T00:17:42;21.50;58.70
32293;DHT22;43233;48.608;8.838;2022-07-24T00:20:09;21.50;59.30
32293;DHT22;43233;48.608;8.838;2022-07-24T00:22:35;21.40;59.30
32293;DHT22;43233;48.608;8.838;2022-07-24T00:25:01;21.40;59.40
32293;DHT22;43233;48.608;8.838;2022-07-24T00:27:26;21.30;59.30
32293;DHT22;43233;48.608;8.838;2022-07-24T00:29:52;21.30;59.70
32293;DHT22;43233;48.608;8.838;2022-07-24T00:32:18;21.30;59.60
32293;DHT22;43233;48.608;8.838;2022-07-24T00:34:43;21.20;59.50
32293;DHT22;43233;48.608;8.838;2022-07-24T00:37:09;21.20;59.80
32293;DHT22;43233;48.608;8.838;2022-07-24T00:39:34;21.10;60.80
32293;DHT22;43233;48.608;8.838;2022-07-24T00:42:00;21.10;61.10
32293;DHT22;43233;48.608;8.838;2022-07-24T00:44:26;21.10;61.30
32293;DHT22;43233;48.608;8.838;2022-07-24T00:46:51;21.10;61.20
32293;DHT22;43233;48.608;8.838;2022-07-24T00:49:19;21.10;61.70
32293;DHT22;43233;48.608;8.838;2022-07-24T00:51:48;21.00;61.70
32293;DHT22;43233;48.608;8.838;2022-07-24T00:54:15;21.00;61.70
32293;DHT22;43233;48.608;8.838;2022-07-24T00:56:42;21.00;62.20
32293;DHT22;43233;48.608;8.838;2022-07-24T00:59:08;20.90;62.50
32293;DHT22;43233;48.608;8.838;2022-07-24T01:01:34;20.80;62.70
32293;DHT22;43233;48.608;8.838;2022-07-24T01:04:00;20.90;63.00
32293;DHT22;43233;48.608;8.838;2022-07-24T01:06:25;20.90;62.90
32293;DHT22;43233;48.608;8.838;2022-07-24T01:08:51;20.90;62.50
32293;DHT22;43233;48.608;8.838;2022-07-24T01:11:18;20.90;62.30
32293;DHT22;43233;48.608;8.838;2022-07-24T01:13:44;20.80;62.00
32293;DHT22;43233;48.608;8.838;2022-07-24T01:16:11;20.80;61.90
32293;DHT22;43233;48.608;8.838;2022-07-24T01:18:37;20.80;62.00
32293;DHT22;43233;48.608;8.838;2022-07-24T01:21:04;20.70;61.90
32293;DHT22;43233;48.608;8.838;2022-07-24T01:23:30;20.70;62.10
32293;DHT22;43233;48.608;8.838;2022-07-24T01:25:56;20.70;62.10
32293;DHT22;43233;48.608;8.838;2022-07-24T01:28:22;20.60;62.40
32293;DHT22;43233;48.608;8.838;2022-07-24T01:30:48;20.50;63.10
32293;DHT22;43233;48.608;8.838;2022-07-24T01:33:13;20.40;63.70
32293;DHT22;43233;48.608;8.838;2022-07-24T01:35:41;20.30;64.60
32293;DHT22;43233;48.608;8.838;2022-07-24T01:38:07;20.20;65.20
32293;DHT22;43233;48.608;8.838;2022-07-24T01:40:32;20.20;65.80
32293;DHT22;43233;48.608;8.838;2022-07-24T01:42:58;20.20;65.70
32293;DHT22;43233;48.608;8.838;2022-07-24T01:45:24;20.20;66.00
32293;DHT22;43233;48.608;8.838;2022-07-24T01:47:49;20.10;66.20
32293;DHT22;43233;48.608;8.838;2022-07-24T01:50:15;20.00;66.10
32293;DHT22;43233;48.608;8.838;2022-07-24T01:52:41;20.00;66.90
32293;DHT22;43233;48.608;8.838;2022-07-24T01:55:07;19.90;67.40
32293;DHT22;43233;48.608;8.838;2022-07-24T01:57:33;19.80;67.80
32293;DHT22;43233;48.608;8.838;2022-07-24T02:00:00;19.70;67.90
32293;DHT22;43233;48.608;8.838;2022-07-24T02:02:27;19.70;67.40
32293;DHT22;43233;48.608;8.838;2022-07-24T02:04:53;19.70;67.30
32293;DHT22;43233;48.608;8.838;2022-07-24T02:07:19;19.60;67.10
32293;DHT22;43233;48.608;8.838;2022-07-24T02:09:44;19.60;66.80
32293;DHT22;43233;48.608;8.838;2022-07-24T02:12:10;19.50;66.30
32293;DHT22;43233;48.608;8.838;2022-07-24T02:14:36;19.50;65.70
32293;DHT22;43233;48.608;8.838;2022-07-24T02:17:02;19.60;65.00
32293;DHT22;43233;48.608;8.838;2022-07-24T02:19:27;19.70;65.00
32293;DHT22;43233;48.608;8.838;2022-07-24T02:21:53;19.70;64.50
32293;DHT22;43233;48.608;8.838;2022-07-24T02:24:18;19.70;64.40
32293;DHT22;43233;48.608;8.838;2022-07-24T02:26:44;19.60;64.50
32293;DHT22;43233;48.608;8.838;2022-07-24T02:29:09;19.60;64.80
32293;DHT22;43233;48.608;8.838;2022-07-24T02:31:35;19.50;64.80
32293;DHT22;43233;48.608;8.838;2022-07-24T02:34:01;19.50;65.00
32293;DHT22;43233;48.608;8.838;2022-07-24T02:36:27;19.40;64.90
32293;DHT22;43233;48.608;8.838;2022-07-24T02:38:52;19.40;65.10
32293;DHT22;43233;48.608;8.838;2022-07-24T02:41:18;19.30;65.40
32293;DHT22;43233;48.608;8.838;2022-07-24T02:43:44;19.20;65.40
32293;DHT22;43233;48.608;8.838;2022-07-24T02:46:10;19.20;65.20
32293;DHT22;43233;48.608;8.838;2022-07-24T02:48:35;19.30;66.00
32293;DHT22;43233;48.608;8.838;2022-07-24T02:51:02;19.00;66.00
32293;DHT22;43233;48.608;8.838;2022-07-24T02:53:28;19.00;66.40
32293;DHT22;43233;48.608;8.838;2022-07-24T02:55:53;18.90;66.50
32293;DHT22;43233;48.608;8.838;2022-07-24T02:58:19;18.90;66.40
32293;DHT22;43233;48.608;8.838;2022-07-24T03:00:45;18.90;66.50
32293;DHT22;43233;48.608;8.838;2022-07-24T03:03:10;18.80;67.00
32293;DHT22;43233;48.608;8.838;2022-07-24T03:05:36;18.70;67.50
32293;DHT22;43233;48.608;8.838;2022-07-24T03:08:02;18.70;67.70
32293;DHT22;43233;48.608;8.838;2022-07-24T03:10:27;18.70;67.60
32293;DHT22;43233;48.608;8.838;2022-07-24T03:12:53;18.70;67.50
32293;DHT22;43233;48.608;8.838;2022-07-24T03:15:18;18.70;67.50
32293;DHT22;43233;48.608;8.838;2022-07-24T03:17:54;18.70;67.90
32293;DHT22;43233;48.608;8.838;2022-07-24T03:20:22;18.60;68.10
32293;DHT22;43233;48.608;8.838;2022-07-24T03:22:48;18.60;68.30
32293;DHT22;43233;48.608;8.838;2022-07-24T03:25:14;18.50;68.50
32293;DHT22;43233;48.608;8.838;2022-07-24T03:27:40;18.50;68.50
32293;DHT22;43233;48.608;8.838;2022-07-24T03:30:07;18.50;68.20
32293;DHT22;43233;48.608;8.838;2022-07-24T03:32:33;18.50;69.20
32293;DHT22;43233;48.608;8.838;2022-07-24T03:34:59;18.50;68.80
32293;DHT22;43233;48.608;8.838;2022-07-24T03:37:24;18.40;68.80
32293;DHT22;43233;48.608;8.838;2022-07-24T03:39:50;18.30;69.10
32293;DHT22;43233;48.608;8.838;2022-07-24T03:42:16;18.30;69.50
32293;DHT22;43233;48.608;8.838;2022-07-24T03:44:41;18.30;69.50
32293;DHT22;43233;48.608;8.838;2022-07-24T03:47:07;18.20;69.90
32293;DHT22;43233;48.608;8.838;2022-07-24T03:49:33;18.20;70.00
32293;DHT22;43233;48.608;8.838;2022-07-24T03:51:58;18.20;70.00
32293;DHT22;43233;48.608;8.838;2022-07-24T03:54:24;18.10;70.50
32293;DHT22;43233;48.608;8.838;2022-07-24T03:56:50;18.10;70.60
32293;DHT22;43233;48.608;8.838;2022-07-24T03:59:16;18.10;70.60
32293;DHT22;43233;48.608;8.838;2022-07-24T04:01:42;18.20;70.30
32293;DHT22;43233;48.608;8.838;2022-07-24T04:04:08;18.20;70.20
32293;DHT22;43233;48.608;8.838;2022-07-24T04:06:34;18.20;71.00
32293;DHT22;43233;48.608;8.838;2022-07-24T04:09:02;18.20;70.10
32293;DHT22;43233;48.608;8.838;2022-07-24T04:11:28;18.20;70.20
32293;DHT22;43233;48.608;8.838;2022-07-24T04:13:53;18.20;70.50
32293;DHT22;43233;48.608;8.838;2022-07-24T04:16:19;18.20;70.40
32293;DHT22;43233;48.608;8.838;2022-07-24T04:18:45;18.30;70.50
32293;DHT22;43233;48.608;8.838;2022-07-24T04:21:11;18.30;70.90
32293;DHT22;43233;48.608;8.838;2022-07-24T04:23:36;18.20;70.70
32293;DHT22;43233;48.608;8.838;2022-07-24T04:26:03;18.30;70.80
32293;DHT22;43233;48.608;8.838;2022-07-24T04:28:29;18.40;70.60
32293;DHT22;43233;48.608;8.838;2022-07-24T04:30:55;18.40;70.60
32293;DHT22;43233;48.608;8.838;2022-07-24T04:33:21;18.50;71.10
32293;DHT22;43233;48.608;8.838;2022-07-24T04:35:46;18.50;71.10
32293;DHT22;43233;48.608;8.838;2022-07-24T04:38:12;18.50;70.90
32293;DHT22;43233;48.608;8.838;2022-07-24T04:40:38;18.60;71.40
32293;DHT22;43233;48.608;8.838;2022-07-24T04:43:04;18.70;70.70
32293;DHT22;43233;48.608;8.838;2022-07-24T04:45:29;18.70;70.30
32293;DHT22;43233;48.608;8.838;2022-07-24T04:47:55;18.80;69.70
32293;DHT22;43233;48.608;8.838;2022-07-24T04:50:20;18.90;69.20
32293;DHT22;43233;48.608;8.838;2022-07-24T04:52:46;18.90;69.20
32293;DHT22;43233;48.608;8.838;2022-07-24T04:55:12;18.90;69.00
32293;DHT22;43233;48.608;8.838;2022-07-24T04:57:39;19.00;68.70
32293;DHT22;43233;48.608;8.838;2022-07-24T05:00:06;19.00;68.90
32293;DHT22;43233;48.608;8.838;2022-07-24T05:02:33;19.10;68.50
32293;DHT22;43233;48.608;8.838;2022-07-24T05:04:58;19.20;68.60
32293;DHT22;43233;48.608;8.838;2022-07-24T05:07:24;19.20;69.10
32293;DHT22;43233;48.608;8.838;2022-07-24T05:09:50;19.20;70.10
32293;DHT22;43233;48.608;8.838;2022-07-24T05:12:15;19.30;70.10
32293;DHT22;43233;48.608;8.838;2022-07-24T05:14:41;19.30;69.80
32293;DHT22;43233;48.608;8.838;2022-07-24T05:17:07;19.40;69.60
32293;DHT22;43233;48.608;8.838;2022-07-24T05:19:32;19.40;69.80
32293;DHT22;43233;48.608;8.838;2022-07-24T05:21:58;19.50;69.30
32293;DHT22;43233;48.608;8.838;2022-07-24T05:24:24;19.60;68.90
32293;DHT22;43233;48.608;8.838;2022-07-24T05:26:50;19.70;68.70
32293;DHT22;43233;48.608;8.838;2022-07-24T05:29:16;19.70;69.10
32293;DHT22;43233;48.608;8.838;2022-07-24T05:31:42;19.70;68.90
32293;DHT22;43233;48.608;8.838;2022-07-24T05:34:08;19.70;69.00
32293;DHT22;43233;48.608;8.838;2022-07-24T05:36:34;19.80;68.70
32293;DHT22;43233;48.608;8.838;2022-07-24T05:38:59;19.80;68.90
32293;DHT22;43233;48.608;8.838;2022-07-24T05:41:25;20.00;69.00
32293;DHT22;43233;48.608;8.838;2022-07-24T05:43:51;20.10;68.70
32293;DHT22;43233;48.608;8.838;2022-07-24T05:46:16;20.20;67.60
32293;DHT22;43233;48.608;8.838;2022-07-24T05:48:42;20.40;66.80
32293;DHT22;43233;48.608;8.838;2022-07-24T05:51:08;20.40;66.90
32293;DHT22;43233;48.608;8.838;2022-07-24T05:53:33;20.50;67.80
32293;DHT22;43233;48.608;8.838;2022-07-24T05:55:59;20.60;67.90
32293;DHT22;43233;48.608;8.838;2022-07-24T05:58:24;20.70;67.20
32293;DHT22;43233;48.608;8.838;2022-07-24T06:00:50;20.80;66.80
32293;DHT22;43233;48.608;8.838;2022-07-24T06:03:16;20.80;66.60
32293;DHT22;43233;48.608;8.838;2022-07-24T06:05:41;20.80;66.20
32293;DHT22;43233;48.608;8.838;2022-07-24T06:08:07;20.80;66.10
32293;DHT22;43233;48.608;8.838;2022-07-24T06:10:34;20.80;65.30
32293;DHT22;43233;48.608;8.838;2022-07-24T06:13:00;20.80;65.10
32293;DHT22;43233;48.608;8.838;2022-07-24T06:15:25;20.80;65.60
32293;DHT22;43233;48.608;8.838;2022-07-24T06:17:51;20.90;65.50
32293;DHT22;43233;48.608;8.838;2022-07-24T06:20:17;20.90;65.80
32293;DHT22;43233;48.608;8.838;2022-07-24T06:22:43;20.90;65.70
32293;DHT22;43233;48.608;8.838;2022-07-24T06:25:10;20.90;66.00
32293;DHT22;43233;48.608;8.838;2022-07-24T06:27:44;21.00;66.60
32293;DHT22;43233;48.608;8.838;2022-07-24T06:30:23;21.10;65.60
32293;DHT22;43233;48.608;8.838;2022-07-24T06:32:53;21.20;65.30
32293;DHT22;43233;48.608;8.838;2022-07-24T06:35:19;21.20;65.30
32293;DHT22;43233;48.608;8.838;2022-07-24T06:37:45;21.20;65.40
32293;DHT22;43233;48.608;8.838;2022-07-24T06:40:11;21.30;65.00
32293;DHT22;43233;48.608;8.838;2022-07-24T06:42:37;21.30;64.90
32293;DHT22;43233;48.608;8.838;2022-07-24T06:45:03;21.40;64.30
32293;DHT22;43233;48.608;8.838;2022-07-24T06:47:29;21.40;64.10
32293;DHT22;43233;48.608;8.838;2022-07-24T06:49:56;21.30;63.40
32293;DHT22;43233;48.608;8.838;2022-07-24T06:52:22;21.40;63.90
32293;DHT22;43233;48.608;8.838;2022-07-24T06:54:49;21.50;62.30
32293;DHT22;43233;48.608;8.838;2022-07-24T06:57:15;21.50;62.00
32293;DHT22;43233;48.608;8.838;2022-07-24T06:59:42;21.60;62.40
32293;DHT22;43233;48.608;8.838;2022-07-24T07:02:07;21.50;62.70
32293;DHT22;43233;48.608;8.838;2022-07-24T07:04:33;21.60;62.30
32293;DHT22;43233;48.608;8.838;2022-07-24T07:06:59;21.60;63.10
32293;DHT22;43233;48.608;8.838;2022-07-24T07:09:24;21.70;63.00
32293;DHT22;43233;48.608;8.838;2022-07-24T07:11:50;21.80;63.00
32293;DHT22;43233;48.608;8.838;2022-07-24T07:14:16;21.90;62.60
32293;DHT22;43233;48.608;8.838;2022-07-24T07:16:42;21.90;62.50
32293;DHT22;43233;48.608;8.838;2022-07-24T07:19:07;21.90;62.90
32293;DHT22;43233;48.608;8.838;2022-07-24T07:21:33;22.00;62.40
32293;DHT22;43233;48.608;8.838;2022-07-24T07:23:58;22.10;62.30
32293;DHT22;43233;48.608;8.838;2022-07-24T07:26:24;22.10;62.70
32293;DHT22;43233;48.608;8.838;2022-07-24T07:28:50;22.20;62.40
32293;DHT22;43233;48.608;8.838;2022-07-24T07:31:15;22.30;62.50
32293;DHT22;43233;48.608;8.838;2022-07-24T07:33:41;22.30;62.80
32293;DHT22;43233;48.608;8.838;2022-07-24T07:36:07;22.40;62.40
32293;DHT22;43233;48.608;8.838;2022-07-24T07:38:34;22.60;61.00
32293;DHT22;43233;48.608;8.838;2022-07-24T07:41:00;22.60;61.00
32293;DHT22;43233;48.608;8.838;2022-07-24T07:43:26;22.70;60.60
32293;DHT22;43233;48.608;8.838;2022-07-24T07:45:51;22.90;60.90
32293;DHT22;43233;48.608;8.838;2022-07-24T07:48:17;22.90;60.40
32293;DHT22;43233;48.608;8.838;2022-07-24T07:50:43;22.90;60.40
32293;DHT22;43233;48.608;8.838;2022-07-24T07:53:08;22.90;59.30
32293;DHT22;43233;48.608;8.838;2022-07-24T07:55:34;23.00;59.30
32293;DHT22;43233;48.608;8.838;2022-07-24T07:58:00;23.10;58.90
32293;DHT22;43233;48.608;8.838;2022-07-24T08:00:26;23.20;58.20
32293;DHT22;43233;48.608;8.838;2022-07-24T08:02:52;23.20;57.80
32293;DHT22;43233;48.608;8.838;2022-07-24T08:05:17;23.30;57.60
32293;DHT22;43233;48.608;8.838;2022-07-24T08:07:43;23.30;57.10
32293;DHT22;43233;48.608;8.838;2022-07-24T08:10:09;23.40;56.20
32293;DHT22;43233;48.608;8.838;2022-07-24T08:12:35;23.50;55.90
32293;DHT22;43233;48.608;8.838;2022-07-24T08:15:00;23.60;56.10
32293;DHT22;43233;48.608;8.838;2022-07-24T08:17:26;23.70;55.30
32293;DHT22;43233;48.608;8.838;2022-07-24T08:19:51;23.80;55.00
32293;DHT22;43233;48.608;8.838;2022-07-24T08:22:17;23.90;53.70
32293;DHT22;43233;48.608;8.838;2022-07-24T08:24:43;23.90;53.10
32293;DHT22;43233;48.608;8.838;2022-07-24T08:27:08;24.00;53.40
32293;DHT22;43233;48.608;8.838;2022-07-24T08:29:34;24.30;50.20
32293;DHT22;43233;48.608;8.838;2022-07-24T08:32:02;24.40;50.00
32293;DHT22;43233;48.608;8.838;2022-07-24T08:34:28;24.50;50.80
32293;DHT22;43233;48.608;8.838;2022-07-24T08:36:54;24.60;49.30
32293;DHT22;43233;48.608;8.838;2022-07-24T08:39:19;24.70;48.10
32293;DHT22;43233;48.608;8.838;2022-07-24T08:41:45;24.70;48.30
32293;DHT22;43233;48.608;8.838;2022-07-24T08:44:11;24.80;48.60
32293;DHT22;43233;48.608;8.838;2022-07-24T08:46:38;25.00;47.40
32293;DHT22;43233;48.608;8.838;2022-07-24T08:49:07;25.10;46.40
32293;DHT22;43233;48.608;8.838;2022-07-24T08:51:37;25.10;46.90
32293;DHT22;43233;48.608;8.838;2022-07-24T08:54:04;25.10;46.00
32293;DHT22;43233;48.608;8.838;2022-07-24T08:56:29;25.20;46.30
32293;DHT22;43233;48.608;8.838;2022-07-24T08:58:55;25.30;44.60
32293;DHT22;43233;48.608;8.838;2022-07-24T09:01:21;25.40;46.30
32293;DHT22;43233;48.608;8.838;2022-07-24T09:03:47;25.50;46.90
32293;DHT22;43233;48.608;8.838;2022-07-24T09:06:14;25.70;45.00
32293;DHT22;43233;48.608;8.838;2022-07-24T09:08:41;25.70;45.50
32293;DHT22;43233;48.608;8.838;2022-07-24T09:11:07;25.80;45.70
32293;DHT22;43233;48.608;8.838;2022-07-24T09:13:36;26.00;45.30
32293;DHT22;43233;48.608;8.838;2022-07-24T09:16:22;26.10;44.40
32293;DHT22;43233;48.608;8.838;2022-07-24T09:18:51;26.30;43.50
32293;DHT22;43233;48.608;8.838;2022-07-24T09:21:17;26.40;43.40
32293;DHT22;43233;48.608;8.838;2022-07-24T09:23:44;26.50;43.70
32293;DHT22;43233;48.608;8.838;2022-07-24T09:26:10;26.60;41.60
32293;DHT22;43233;48.608;8.838;2022-07-24T09:28:50;26.70;40.70
32293;DHT22;43233;48.608;8.838;2022-07-24T09:31:16;26.80;41.10
32293;DHT22;43233;48.608;8.838;2022-07-24T09:33:42;26.90;40.20
32293;DHT22;43233;48.608;8.838;2022-07-24T09:36:17;27.00;39.70
32293;DHT22;43233;48.608;8.838;2022-07-24T09:39:00;27.00;40.30
32293;DHT22;43233;48.608;8.838;2022-07-24T09:41:26;27.20;38.60
32293;DHT22;43233;48.608;8.838;2022-07-24T09:44:03;27.30;38.30
32293;DHT22;43233;48.608;8.838;2022-07-24T09:46:29;27.10;39.20
32293;DHT22;43233;48.608;8.838;2022-07-24T09:48:57;27.20;40.40
32293;DHT22;43233;48.608;8.838;2022-07-24T09:51:26;27.30;38.80
32293;DHT22;43233;48.608;8.838;2022-07-24T09:53:59;27.50;38.10
32293;DHT22;43233;48.608;8.838;2022-07-24T09:56:26;27.60;36.70
32293;DHT22;43233;48.608;8.838;2022-07-24T09:58:56;27.60;37.20
32293;DHT22;43233;48.608;8.838;2022-07-24T10:01:26;27.40;36.70
32293;DHT22;43233;48.608;8.838;2022-07-24T10:03:54;27.40;38.10
32293;DHT22;43233;48.608;8.838;2022-07-24T10:06:23;27.40;39.40
32293;DHT22;43233;48.608;8.838;2022-07-24T10:08:51;27.60;40.30
32293;DHT22;43233;48.608;8.838;2022-07-24T10:11:18;27.80;38.70
32293;DHT22;43233;48.608;8.838;2022-07-24T10:13:44;28.00;37.00
32293;DHT22;43233;48.608;8.838;2022-07-24T10:21:21;28.40;36.00
32293;DHT22;43233;48.608;8.838;2022-07-24T10:24:31;28.60;34.80
32293;DHT22;43233;48.608;8.838;2022-07-24T10:27:03;28.60;34.40
32293;DHT22;43233;48.608;8.838;2022-07-24T10:29:33;28.60;34.60
32293;DHT22;43233;48.608;8.838;2022-07-24T10:32:00;28.30;35.20
32293;DHT22;43233;48.608;8.838;2022-07-24T10:34:50;28.20;36.40
32293;DHT22;43233;48.608;8.838;2022-07-24T10:45:39;28.60;34.30
32293;DHT22;43233;48.608;8.838;2022-07-24T10:53:25;28.00;35.40
32293;DHT22;43233;48.608;8.838;2022-07-24T10:55:51;28.10;37.00
32293;DHT22;43233;48.608;8.838;2022-07-24T10:58:17;28.40;38.70
32293;DHT22;43233;48.608;8.838;2022-07-24T11:00:50;28.80;37.70
32293;DHT22;43233;48.608;8.838;2022-07-24T11:03:24;29.10;36.50
32293;DHT22;43233;48.608;8.838;2022-07-24T11:06:07;29.50;34.60
32293;DHT22;43233;48.608;8.838;2022-07-24T11:08:38;29.80;34.00
32293;DHT22;43233;48.608;8.838;2022-07-24T11:11:15;29.80;32.90
32293;DHT22;43233;48.608;8.838;2022-07-24T11:13:42;29.90;33.90
32293;DHT22;43233;48.608;8.838;2022-07-24T11:18:42;30.30;33.20
32293;DHT22;43233;48.608;8.838;2022-07-24T11:21:35;30.50;33.20
32293;DHT22;43233;48.608;8.838;2022-07-24T11:24:17;30.70;31.70
32293;DHT22;43233;48.608;8.838;2022-07-24T11:26:52;31.00;30.20
32293;DHT22;43233;48.608;8.838;2022-07-24T11:29:20;31.00;30.90
32293;DHT22;43233;48.608;8.838;2022-07-24T11:31:50;31.10;32.10
32293;DHT22;43233;48.608;8.838;2022-07-24T11:34:16;31.20;31.00
32293;DHT22;43233;48.608;8.838;2022-07-24T11:36:44;31.10;31.80
32293;DHT22;43233;48.608;8.838;2022-07-24T11:39:11;31.00;31.90
32293;DHT22;43233;48.608;8.838;2022-07-24T11:41:58;30.60;31.50
32293;DHT22;43233;48.608;8.838;2022-07-24T11:44:27;30.60;31.90
32293;DHT22;43233;48.608;8.838;2022-07-24T11:46:55;30.70;30.10
32293;DHT22;43233;48.608;8.838;2022-07-24T11:49:23;30.80;30.40
32293;DHT22;43233;48.608;8.838;2022-07-24T11:51:51;30.80;29.50
32293;DHT22;43233;48.608;8.838;2022-07-24T11:54:25;30.30;30.70
32293;DHT22;43233;48.608;8.838;2022-07-24T11:56:52;30.00;31.10
32293;DHT22;43233;48.608;8.838;2022-07-24T11:59:26;30.00;31.00
32293;DHT22;43233;48.608;8.838;2022-07-24T12:02:06;29.80;32.50
32293;DHT22;43233;48.608;8.838;2022-07-24T12:04:32;30.00;34.00
32293;DHT22;43233;48.608;8.838;2022-07-24T12:06:59;30.30;33.80
32293;DHT22;43233;48.608;8.838;2022-07-24T12:09:25;30.60;33.10
32293;DHT22;43233;48.608;8.838;2022-07-24T12:11:51;30.90;32.80
32293;DHT22;43233;48.608;8.838;2022-07-24T12:14:19;31.00;31.30
32293;DHT22;43233;48.608;8.838;2022-07-24T12:16:54;31.10;32.90
32293;DHT22;43233;48.608;8.838;2022-07-24T12:19:24;31.40;31.70
32293;DHT22;43233;48.608;8.838;2022-07-24T12:21:53;31.50;29.60
32293;DHT22;43233;48.608;8.838;2022-07-24T12:24:20;31.50;30.20
32293;DHT22;43233;48.608;8.838;2022-07-24T12:26:56;31.60;30.10
32293;DHT22;43233;48.608;8.838;2022-07-24T12:29:24;31.70;31.20
32293;DHT22;43233;48.608;8.838;2022-07-24T12:32:18;31.80;29.70
32293;DHT22;43233;48.608;8.838;2022-07-24T12:34:48;31.90;29.80
32293;DHT22;43233;48.608;8.838;2022-07-24T12:37:16;32.10;30.20
32293;DHT22;43233;48.608;8.838;2022-07-24T12:39:52;32.20;28.80
32293;DHT22;43233;48.608;8.838;2022-07-24T12:42:29;32.20;28.70
32293;DHT22;43233;48.608;8.838;2022-07-24T12:45:08;32.20;28.70
32293;DHT22;43233;48.608;8.838;2022-07-24T12:48:10;32.30;28.80
32293;DHT22;43233;48.608;8.838;2022-07-24T12:50:37;32.40;28.40
32293;DHT22;43233;48.608;8.838;2022-07-24T12:53:05;32.50;30.10
32293;DHT22;43233;48.608;8.838;2022-07-24T12:55:31;32.70;29.40
32293;DHT22;43233;48.608;8.838;2022-07-24T12:58:02;32.90;29.70
32293;DHT22;43233;48.608;8.838;2022-07-24T13:00:29;33.10;28.60
32293;DHT22;43233;48.608;8.838;2022-07-24T13:02:56;33.20;29.10
32293;DHT22;43233;48.608;8.838;2022-07-24T13:05:41;33.20;27.10
32293;DHT22;43233;48.608;8.838;2022-07-24T13:08:08;32.80;27.70
32293;DHT22;43233;48.608;8.838;2022-07-24T13:10:35;32.60;28.30
32293;DHT22;43233;48.608;8.838;2022-07-24T13:13:01;32.60;29.50
32293;DHT22;43233;48.608;8.838;2022-07-24T13:15:27;32.60;29.40
32293;DHT22;43233;48.608;8.838;2022-07-24T13:17:53;32.70;29.30
32293;DHT22;43233;48.608;8.838;2022-07-24T13:20:19;33.00;30.10
32293;DHT22;43233;48.608;8.838;2022-07-24T13:22:44;33.30;28.30
32293;DHT22;43233;48.608;8.838;2022-07-24T13:25:10;33.00;25.90
32293;DHT22;43233;48.608;8.838;2022-07-24T13:27:36;33.00;27.90
32293;DHT22;43233;48.608;8.838;2022-07-24T13:30:02;33.10;28.10
32293;DHT22;43233;48.608;8.838;2022-07-24T13:32:28;33.10;28.20
32293;DHT22;43233;48.608;8.838;2022-07-24T13:34:53;32.90;27.10
32293;DHT22;43233;48.608;8.838;2022-07-24T13:37:19;32.50;28.90
32293;DHT22;43233;48.608;8.838;2022-07-24T13:39:45;32.50;26.90
32293;DHT22;43233;48.608;8.838;2022-07-24T13:42:10;32.70;28.00
32293;DHT22;43233;48.608;8.838;2022-07-24T13:44:36;33.00;28.00
32293;DHT22;43233;48.608;8.838;2022-07-24T13:47:02;33.40;28.10
32293;DHT22;43233;48.608;8.838;2022-07-24T13:49:28;33.70;27.10
32293;DHT22;43233;48.608;8.838;2022-07-24T13:51:54;33.90;27.50
32293;DHT22;43233;48.608;8.838;2022-07-24T13:54:20;34.20;25.30
32293;DHT22;43233;48.608;8.838;2022-07-24T13:56:46;34.40;25.60
32293;DHT22;43233;48.608;8.838;2022-07-24T13:59:11;34.40;26.50
32293;DHT22;43233;48.608;8.838;2022-07-24T14:01:37;34.50;26.30
32293;DHT22;43233;48.608;8.838;2022-07-24T14:04:04;34.50;25.80
32293;DHT22;43233;48.608;8.838;2022-07-24T14:06:34;34.00;25.00
32293;DHT22;43233;48.608;8.838;2022-07-24T14:09:00;34.10;25.10
32293;DHT22;43233;48.608;8.838;2022-07-24T14:11:26;34.30;23.90
32293;DHT22;43233;48.608;8.838;2022-07-24T14:13:51;34.60;24.40
32293;DHT22;43233;48.608;8.838;2022-07-24T14:16:17;34.70;24.60
32293;DHT22;43233;48.608;8.838;2022-07-24T14:18:43;34.60;25.20
32293;DHT22;43233;48.608;8.838;2022-07-24T14:21:09;34.60;25.20
32293;DHT22;43233;48.608;8.838;2022-07-24T14:23:34;34.70;25.20
32293;DHT22;43233;48.608;8.838;2022-07-24T14:26:00;34.20;25.40
32293;DHT22;43233;48.608;8.838;2022-07-24T14:28:25;34.30;25.00
32293;DHT22;43233;48.608;8.838;2022-07-24T14:30:51;34.60;25.80
32293;DHT22;43233;48.608;8.838;2022-07-24T14:33:17;34.80;24.40
32293;DHT22;43233;48.608;8.838;2022-07-24T14:35:42;35.00;24.50
32293;DHT22;43233;48.608;8.838;2022-07-24T14:38:08;35.20;24.10
32293;DHT22;43233;48.608;8.838;2022-07-24T14:40:34;35.20;24.30
32293;DHT22;43233;48.608;8.838;2022-07-24T14:42:59;35.10;23.70
32293;DHT22;43233;48.608;8.838;2022-07-24T14:45:25;35.10;24.70
32293;DHT22;43233;48.608;8.838;2022-07-24T14:47:50;35.10;24.50
32293;DHT22;43233;48.608;8.838;2022-07-24T14:50:16;35.30;23.00
32293;DHT22;43233;48.608;8.838;2022-07-24T14:52:42;35.40;23.50
32293;DHT22;43233;48.608;8.838;2022-07-24T14:55:08;35.30;24.40
32293;DHT22;43233;48.608;8.838;2022-07-24T14:57:34;35.40;23.50
32293;DHT22;43233;48.608;8.838;2022-07-24T15:00:00;35.40;22.10
32293;DHT22;43233;48.608;8.838;2022-07-24T15:02:26;35.20;22.90
32293;DHT22;43233;48.608;8.838;2022-07-24T15:04:51;35.00;23.80
32293;DHT22;43233;48.608;8.838;2022-07-24T15:07:18;35.00;24.30
32293;DHT22;43233;48.608;8.838;2022-07-24T15:09:43;34.90;22.70
32293;DHT22;43233;48.608;8.838;2022-07-24T15:12:09;34.90;23.40
32293;DHT22;43233;48.608;8.838;2022-07-24T15:14:34;34.80;23.40
32293;DHT22;43233;48.608;8.838;2022-07-24T15:17:01;34.80;23.10
32293;DHT22;43233;48.608;8.838;2022-07-24T15:19:27;34.80;23.50
32293;DHT22;43233;48.608;8.838;2022-07-24T15:21:53;34.90;23.90
32293;DHT22;43233;48.608;8.838;2022-07-24T15:24:19;34.90;24.10
32293;DHT22;43233;48.608;8.838;2022-07-24T15:26:45;35.00;23.70
32293;DHT22;43233;48.608;8.838;2022-07-24T15:29:11;35.00;23.90
32293;DHT22;43233;48.608;8.838;2022-07-24T15:31:37;35.00;24.50
32293;DHT22;43233;48.608;8.838;2022-07-24T15:34:03;34.90;23.90
32293;DHT22;43233;48.608;8.838;2022-07-24T15:36:28;34.90;24.20
32293;DHT22;43233;48.608;8.838;2022-07-24T15:38:54;34.90;23.90
32293;DHT22;43233;48.608;8.838;2022-07-24T15:41:20;35.00;23.50
32293;DHT22;43233;48.608;8.838;2022-07-24T15:43:45;35.00;24.00
32293;DHT22;43233;48.608;8.838;2022-07-24T15:46:11;34.90;24.10
32293;DHT22;43233;48.608;8.838;2022-07-24T15:48:37;34.90;22.60
32293;DHT22;43233;48.608;8.838;2022-07-24T15:51:02;34.90;21.80